sensor_id;sensor_type;location;lat;lon;timestamp;pressure;altitude;pressure_sealevel;temperature;humidity
34658;BME280;20865;43.312;27.152;2023-08-31T00:00:23;99576.88;;;32.94;40.59
34658;BME280;20865;43.312;27.152;2023-08-31T00:02:52;99571.55;;;32.86;40.57
34658;BME280;20865;43.312;27.152;2023-08-31T00:05:20;99572.69;;;32.81;40.65
34658;BME280;20865;43.312;27.152;2023-08-31T00:07:48;99571.28;;;32.74;40.73
34658;BME280;20865;43.312;27.152;2023-08-31T00:10:16;99580.73;;;32.69;40.86
34658;BME280;20865;43.312;27.152;2023-08-31T00:12:43;99574.33;;;32.62;41.05
34658;BME280;20865;43.312;27.152;2023-08-31T00:15:11;99580.14;;;32.56;41.29
34658;BME280;20865;43.312;27.152;2023-08-31T00:17:39;99582.28;;;32.54;41.39
34658;BME280;20865;43.312;27.152;2023-08-31T00:20:08;99591.30;;;32.52;41.46
34658;BME280;20865;43.312;27.152;2023-08-31T00:22:38;99581.05;;;32.46;41.54
34658;BME280;20865;43.312;27.152;2023-08-31T00:25:06;99588.63;;;32.48;41.50
34658;BME280;20865;43.312;27.152;2023-08-31T00:27:35;99593.61;;;32.48;41.41
34658;BME280;20865;43.312;27.152;2023-08-31T00:30:07;99598.70;;;32.45;41.43
34658;BME280;20865;43.312;27.152;2023-08-31T00:32:35;99600.14;;;32.41;41.55
34658;BME280;20865;43.312;27.152;2023-08-31T00:35:03;99608.78;;;32.42;41.52
34658;BME280;20865;43.312;27.152;2023-08-31T00:37:31;99616.59;;;32.38;41.57
34658;BME280;20865;43.312;27.152;2023-08-31T00:40:00;99621.98;;;32.36;41.63
34658;BME280;20865;43.312;27.152;2023-08-31T00:42:27;99630.71;;;32.33;41.61
34658;BME280;20865;43.312;27.152;2023-08-31T00:44:56;99634.72;;;32.30;41.66
34658;BME280;20865;43.312;27.152;2023-08-31T00:47:23;99638.95;;;32.26;41.70
34658;BME280;20865;43.312;27.152;2023-08-31T00:49:51;99646.84;;;32.29;41.61
34658;BME280;20865;43.312;27.152;2023-08-31T00:52:19;99652.86;;;32.29;41.64
34658;BME280;20865;43.312;27.152;2023-08-31T00:54:49;99652.77;;;32.26;41.63
34658;BME280;20865;43.312;27.152;2023-08-31T00:57:17;99649.16;;;32.25;41.55
34658;BME280;20865;43.312;27.152;2023-08-31T00:59:44;99650.54;;;32.25;41.38
34658;BME280;20865;43.312;27.152;2023-08-31T01:05:23;99656.02;;;32.19;41.25
34658;BME280;20865;43.312;27.152;2023-08-31T01:07:45;99651.82;;;32.12;41.20
34658;BME280;20865;43.312;27.152;2023-08-31T01:13:02;99675.11;;;32.03;41.54
34658;BME280;20865;43.312;27.152;2023-08-31T01:15:30;99677.23;;;32.01;41.69
34658;BME280;20865;43.312;27.152;2023-08-31T01:18:00;99694.29;;;32.22;41.49
34658;BME280;20865;43.312;27.152;2023-08-31T01:20:49;99680.86;;;31.91;41.93
34658;BME280;20865;43.312;27.152;2023-08-31T01:23:16;99681.26;;;31.88;41.69
34658;BME280;20865;43.312;27.152;2023-08-31T01:25:46;99685.94;;;31.83;41.71
34658;BME280;20865;43.312;27.152;2023-08-31T01:28:15;99684.00;;;31.77;41.70
34658;BME280;20865;43.312;27.152;2023-08-31T01:30:42;99679.19;;;31.75;41.75
34658;BME280;20865;43.312;27.152;2023-08-31T01:33:10;99677.42;;;31.67;42.04
34658;BME280;20865;43.312;27.152;2023-08-31T01:35:45;99671.59;;;31.66;42.15
34658;BME280;20865;43.312;27.152;2023-08-31T01:38:10;99678.73;;;31.71;42.06
34658;BME280;20865;43.312;27.152;2023-08-31T01:40:43;99670.45;;;31.71;42.09
34658;BME280;20865;43.312;27.152;2023-08-31T01:43:11;99675.52;;;31.68;42.22
34658;BME280;20865;43.312;27.152;2023-08-31T01:45:39;99681.36;;;31.69;42.25
34658;BME280;20865;43.312;27.152;2023-08-31T01:48:08;99679.91;;;31.62;42.46
34658;BME280;20865;43.312;27.152;2023-08-31T01:50:36;99682.66;;;31.62;42.50
34658;BME280;20865;43.312;27.152;2023-08-31T01:53:04;99680.12;;;31.61;42.58
34658;BME280;20865;43.312;27.152;2023-08-31T01:55:33;99676.83;;;31.61;42.45
34658;BME280;20865;43.312;27.152;2023-08-31T01:58:00;99678.20;;;31.61;42.34
34658;BME280;20865;43.312;27.152;2023-08-31T02:00:28;99677.30;;;31.54;42.47
34658;BME280;20865;43.312;27.152;2023-08-31T02:02:58;99677.50;;;31.52;42.49
34658;BME280;20865;43.312;27.152;2023-08-31T02:05:25;99673.68;;;31.53;42.29
34658;BME280;20865;43.312;27.152;2023-08-31T02:07:53;99677.82;;;31.43;42.42
34658;BME280;20865;43.312;27.152;2023-08-31T02:10:20;99681.11;;;31.42;42.43
34658;BME280;20865;43.312;27.152;2023-08-31T02:12:48;99681.36;;;31.37;42.34
34658;BME280;20865;43.312;27.152;2023-08-31T02:15:15;99681.10;;;31.27;42.30
34658;BME280;20865;43.312;27.152;2023-08-31T02:17:43;99684.22;;;31.28;42.13
34658;BME280;20865;43.312;27.152;2023-08-31T02:20:11;99681.70;;;31.23;42.21
34658;BME280;20865;43.312;27.152;2023-08-31T02:22:40;99686.81;;;31.15;42.40
34658;BME280;20865;43.312;27.152;2023-08-31T02:25:08;99690.34;;;31.09;42.62
34658;BME280;20865;43.312;27.152;2023-08-31T02:27:36;99684.88;;;31.05;42.96
34658;BME280;20865;43.312;27.152;2023-08-31T02:30:05;99686.00;;;31.00;43.34
34658;BME280;20865;43.312;27.152;2023-08-31T02:32:32;99691.10;;;31.03;43.34
34658;BME280;20865;43.312;27.152;2023-08-31T02:35:00;99693.30;;;30.93;43.52
34658;BME280;20865;43.312;27.152;2023-08-31T02:37:28;99690.55;;;30.93;43.46
34658;BME280;20865;43.312;27.152;2023-08-31T02:39:55;99689.67;;;30.81;43.62
34658;BME280;20865;43.312;27.152;2023-08-31T02:42:23;99686.70;;;30.98;43.45
34658;BME280;20865;43.312;27.152;2023-08-31T02:44:52;99684.27;;;30.99;43.43
34658;BME280;20865;43.312;27.152;2023-08-31T02:47:20;99695.77;;;31.02;43.39
34658;BME280;20865;43.312;27.152;2023-08-31T02:49:48;99696.83;;;31.01;43.46
34658;BME280;20865;43.312;27.152;2023-08-31T02:52:15;99696.59;;;30.92;43.81
34658;BME280;20865;43.312;27.152;2023-08-31T02:54:43;99702.02;;;30.85;44.04
34658;BME280;20865;43.312;27.152;2023-08-31T02:57:11;99708.73;;;30.87;44.05
34658;BME280;20865;43.312;27.152;2023-08-31T02:59:38;99706.15;;;30.85;44.24
34658;BME280;20865;43.312;27.152;2023-08-31T03:02:06;99707.36;;;30.87;44.40
34658;BME280;20865;43.312;27.152;2023-08-31T03:04:34;99699.88;;;30.92;44.37
34658;BME280;20865;43.312;27.152;2023-08-31T03:07:03;99708.94;;;30.96;44.16
34658;BME280;20865;43.312;27.152;2023-08-31T03:09:31;99705.86;;;30.95;44.01
34658;BME280;20865;43.312;27.152;2023-08-31T03:11:59;99709.08;;;30.99;43.84
34658;BME280;20865;43.312;27.152;2023-08-31T03:14:27;99711.84;;;30.99;43.74
34658;BME280;20865;43.312;27.152;2023-08-31T03:16:54;99710.67;;;30.97;43.75
34658;BME280;20865;43.312;27.152;2023-08-31T03:19:22;99701.72;;;30.95;43.85
34658;BME280;20865;43.312;27.152;2023-08-31T03:21:50;99700.88;;;30.95;43.97
34658;BME280;20865;43.312;27.152;2023-08-31T03:24:18;99701.55;;;30.97;43.83
34658;BME280;20865;43.312;27.152;2023-08-31T03:26:45;99707.23;;;30.95;43.85
34658;BME280;20865;43.312;27.152;2023-08-31T03:29:13;99704.33;;;30.93;43.94
34658;BME280;20865;43.312;27.152;2023-08-31T03:31:40;99703.30;;;30.94;43.98
34658;BME280;20865;43.312;27.152;2023-08-31T03:34:08;99704.92;;;30.88;44.13
34658;BME280;20865;43.312;27.152;2023-08-31T03:36:36;99714.83;;;30.82;44.39
34658;BME280;20865;43.312;27.152;2023-08-31T03:39:03;99717.06;;;30.83;44.58
34658;BME280;20865;43.312;27.152;2023-08-31T03:41:31;99720.61;;;30.88;44.58
34658;BME280;20865;43.312;27.152;2023-08-31T03:43:59;99723.31;;;30.92;44.59
34658;BME280;20865;43.312;27.152;2023-08-31T03:46:26;99715.04;;;30.92;44.62
34658;BME280;20865;43.312;27.152;2023-08-31T03:48:54;99716.42;;;30.92;44.61
34658;BME280;20865;43.312;27.152;2023-08-31T03:51:21;99716.89;;;30.95;44.52
34658;BME280;20865;43.312;27.152;2023-08-31T03:53:49;99719.12;;;30.96;44.43
34658;BME280;20865;43.312;27.152;2023-08-31T03:56:17;99718.20;;;30.99;44.49
34658;BME280;20865;43.312;27.152;2023-08-31T03:58:44;99720.97;;;30.99;44.54
34658;BME280;20865;43.312;27.152;2023-08-31T04:01:12;99725.30;;;30.98;44.55
34658;BME280;20865;43.312;27.152;2023-08-31T04:03:42;99722.23;;;30.97;44.66
34658;BME280;20865;43.312;27.152;2023-08-31T04:06:10;99723.70;;;31.03;44.61
34658;BME280;20865;43.312;27.152;2023-08-31T04:08:37;99732.46;;;31.03;44.71
34658;BME280;20865;43.312;27.152;2023-08-31T04:11:05;99736.16;;;31.10;44.59
34658;BME280;20865;43.312;27.152;2023-08-31T04:13:32;99733.08;;;31.09;44.62
34658;BME280;20865;43.312;27.152;2023-08-31T04:16:00;99738.86;;;31.03;44.68
34658;BME280;20865;43.312;27.152;2023-08-31T04:18:28;99740.45;;;31.13;44.52
34658;BME280;20865;43.312;27.152;2023-08-31T04:20:55;99749.02;;;31.18;44.45
34658;BME280;20865;43.312;27.152;2023-08-31T04:23:25;99750.04;;;31.17;44.37
34658;BME280;20865;43.312;27.152;2023-08-31T04:25:52;99753.65;;;31.17;44.26
34658;BME280;20865;43.312;27.152;2023-08-31T04:28:20;99749.86;;;31.18;44.25
34658;BME280;20865;43.312;27.152;2023-08-31T04:30:48;99749.72;;;31.16;44.28
34658;BME280;20865;43.312;27.152;2023-08-31T04:33:15;99753.33;;;31.16;44.22
34658;BME280;20865;43.312;27.152;2023-08-31T04:35:43;99757.78;;;31.17;44.28
34658;BME280;20865;43.312;27.152;2023-08-31T04:38:11;99758.98;;;31.19;44.12
34658;BME280;20865;43.312;27.152;2023-08-31T04:40:38;99763.06;;;31.23;44.03
34658;BME280;20865;43.312;27.152;2023-08-31T04:43:07;99761.92;;;31.17;44.13
34658;BME280;20865;43.312;27.152;2023-08-31T04:45:35;99757.17;;;31.26;44.03
34658;BME280;20865;43.312;27.152;2023-08-31T04:48:02;99764.47;;;31.08;44.43
34658;BME280;20865;43.312;27.152;2023-08-31T04:50:30;99764.94;;;31.12;44.55
34658;BME280;20865;43.312;27.152;2023-08-31T04:52:58;99770.90;;;31.30;44.12
34658;BME280;20865;43.312;27.152;2023-08-31T04:55:25;99768.64;;;31.34;44.15
34658;BME280;20865;43.312;27.152;2023-08-31T04:57:53;99769.95;;;31.38;44.17
34658;BME280;20865;43.312;27.152;2023-08-31T05:00:20;99770.70;;;31.36;44.18
34658;BME280;20865;43.312;27.152;2023-08-31T05:02:48;99773.92;;;31.39;44.19
34658;BME280;20865;43.312;27.152;2023-08-31T05:05:16;99788.33;;;31.45;44.18
34658;BME280;20865;43.312;27.152;2023-08-31T05:07:45;99783.74;;;31.52;44.11
34658;BME280;20865;43.312;27.152;2023-08-31T05:10:12;99786.05;;;31.60;44.00
34658;BME280;20865;43.312;27.152;2023-08-31T05:12:40;99783.55;;;31.65;44.11
34658;BME280;20865;43.312;27.152;2023-08-31T05:15:08;99781.39;;;31.71;44.08
34658;BME280;20865;43.312;27.152;2023-08-31T05:17:36;99772.59;;;31.82;44.02
34658;BME280;20865;43.312;27.152;2023-08-31T05:20:04;99771.45;;;31.91;43.75
34658;BME280;20865;43.312;27.152;2023-08-31T05:22:34;99779.34;;;32.05;43.29
34658;BME280;20865;43.312;27.152;2023-08-31T05:25:02;99771.68;;;32.18;43.18
34658;BME280;20865;43.312;27.152;2023-08-31T05:27:30;99768.72;;;32.30;43.01
34658;BME280;20865;43.312;27.152;2023-08-31T05:29:58;99776.31;;;32.43;42.65
34658;BME280;20865;43.312;27.152;2023-08-31T05:32:30;99778.27;;;32.66;42.27
34658;BME280;20865;43.312;27.152;2023-08-31T05:34:57;99789.55;;;32.82;42.02
34658;BME280;20865;43.312;27.152;2023-08-31T05:37:26;99792.98;;;33.02;41.94
34658;BME280;20865;43.312;27.152;2023-08-31T05:39:53;99795.29;;;33.15;41.43
34658;BME280;20865;43.312;27.152;2023-08-31T05:42:21;99789.64;;;33.30;41.34
34658;BME280;20865;43.312;27.152;2023-08-31T05:44:48;99800.55;;;33.45;40.96
34658;BME280;20865;43.312;27.152;2023-08-31T05:47:16;99797.62;;;33.53;40.63
34658;BME280;20865;43.312;27.152;2023-08-31T05:49:44;99796.92;;;33.62;40.81
34658;BME280;20865;43.312;27.152;2023-08-31T05:52:11;99801.45;;;33.83;40.15
34658;BME280;20865;43.312;27.152;2023-08-31T05:54:39;99812.34;;;33.98;40.05
34658;BME280;20865;43.312;27.152;2023-08-31T05:57:06;99818.78;;;34.05;39.77
34658;BME280;20865;43.312;27.152;2023-08-31T05:59:34;99809.72;;;34.13;39.62
34658;BME280;20865;43.312;27.152;2023-08-31T06:02:01;99815.09;;;34.28;39.34
34658;BME280;20865;43.312;27.152;2023-08-31T06:04:30;99815.95;;;34.49;38.92
34658;BME280;20865;43.312;27.152;2023-08-31T06:06:58;99818.72;;;34.55;38.78
34658;BME280;20865;43.312;27.152;2023-08-31T06:09:26;99820.65;;;34.61;38.88
34658;BME280;20865;43.312;27.152;2023-08-31T06:11:53;99829.39;;;34.72;38.77
34658;BME280;20865;43.312;27.152;2023-08-31T06:14:21;99830.89;;;34.74;38.55
34658;BME280;20865;43.312;27.152;2023-08-31T06:16:48;99834.28;;;34.83;38.38
34658;BME280;20865;43.312;27.152;2023-08-31T06:19:16;99839.28;;;34.90;38.26
34658;BME280;20865;43.312;27.152;2023-08-31T06:21:43;99846.44;;;34.95;38.17
34658;BME280;20865;43.312;27.152;2023-08-31T06:24:11;99845.06;;;35.08;38.02
34658;BME280;20865;43.312;27.152;2023-08-31T06:26:39;99846.64;;;35.14;38.14
34658;BME280;20865;43.312;27.152;2023-08-31T06:29:07;99855.17;;;35.25;37.77
34658;BME280;20865;43.312;27.152;2023-08-31T06:31:36;99852.70;;;35.26;37.88
34658;BME280;20865;43.312;27.152;2023-08-31T06:34:04;99851.17;;;35.37;37.63
34658;BME280;20865;43.312;27.152;2023-08-31T06:36:32;99844.52;;;35.45;37.52
34658;BME280;20865;43.312;27.152;2023-08-31T06:38:59;99848.13;;;35.59;37.67
34658;BME280;20865;43.312;27.152;2023-08-31T06:41:27;99850.84;;;35.72;37.57
34658;BME280;20865;43.312;27.152;2023-08-31T06:43:55;99845.23;;;35.85;37.06
34658;BME280;20865;43.312;27.152;2023-08-31T06:46:22;99855.44;;;35.91;37.19
34658;BME280;20865;43.312;27.152;2023-08-31T06:48:50;99861.19;;;36.03;36.98
34658;BME280;20865;43.312;27.152;2023-08-31T06:51:17;99862.75;;;36.08;37.05
34658;BME280;20865;43.312;27.152;2023-08-31T06:53:45;99859.52;;;36.11;36.60
34658;BME280;20865;43.312;27.152;2023-08-31T06:56:13;99860.59;;;36.26;36.79
34658;BME280;20865;43.312;27.152;2023-08-31T06:58:41;99858.01;;;36.31;36.50
34658;BME280;20865;43.312;27.152;2023-08-31T07:01:11;99861.18;;;36.19;37.00
34658;BME280;20865;43.312;27.152;2023-08-31T07:03:39;99864.87;;;36.44;36.54
34658;BME280;20865;43.312;27.152;2023-08-31T07:06:06;99860.30;;;36.57;36.09
34658;BME280;20865;43.312;27.152;2023-08-31T07:08:34;99853.65;;;36.58;35.84
34658;BME280;20865;43.312;27.152;2023-08-31T07:11:03;99849.66;;;36.63;35.70
34658;BME280;20865;43.312;27.152;2023-08-31T07:13:32;99852.00;;;36.75;35.63
34658;BME280;20865;43.312;27.152;2023-08-31T07:15:59;99858.05;;;36.81;35.22
34658;BME280;20865;43.312;27.152;2023-08-31T07:18:27;99854.75;;;36.91;35.22
34658;BME280;20865;43.312;27.152;2023-08-31T07:20:55;99840.27;;;36.98;35.20
34658;BME280;20865;43.312;27.152;2023-08-31T07:23:22;99844.20;;;37.00;34.69
34658;BME280;20865;43.312;27.152;2023-08-31T07:25:50;99843.83;;;37.05;35.20
34658;BME280;20865;43.312;27.152;2023-08-31T07:28:18;99849.48;;;37.26;34.74
34658;BME280;20865;43.312;27.152;2023-08-31T07:30:45;99853.59;;;37.33;34.32
34658;BME280;20865;43.312;27.152;2023-08-31T07:33:13;99860.54;;;37.24;34.57
34658;BME280;20865;43.312;27.152;2023-08-31T07:35:42;99857.84;;;37.26;34.23
34658;BME280;20865;43.312;27.152;2023-08-31T07:38:09;99864.13;;;37.58;33.60
34658;BME280;20865;43.312;27.152;2023-08-31T07:40:37;99865.14;;;37.64;33.92
34658;BME280;20865;43.312;27.152;2023-08-31T07:43:04;99861.42;;;37.70;33.55
34658;BME280;20865;43.312;27.152;2023-08-31T07:45:32;99864.37;;;37.66;33.23
34658;BME280;20865;43.312;27.152;2023-08-31T07:47:59;99871.03;;;37.56;33.39
34658;BME280;20865;43.312;27.152;2023-08-31T07:50:27;99879.47;;;37.49;33.30
34658;BME280;20865;43.312;27.152;2023-08-31T07:52:55;99888.13;;;37.50;33.65
34658;BME280;20865;43.312;27.152;2023-08-31T07:55:23;99889.38;;;37.45;33.94
34658;BME280;20865;43.312;27.152;2023-08-31T07:57:50;99879.67;;;37.38;33.83
34658;BME280;20865;43.312;27.152;2023-08-31T08:00:19;99867.59;;;37.26;33.56
34658;BME280;20865;43.312;27.152;2023-08-31T08:02:46;99864.66;;;37.21;34.60
34658;BME280;20865;43.312;27.152;2023-08-31T08:05:14;99869.43;;;37.41;34.58
34658;BME280;20865;43.312;27.152;2023-08-31T08:07:41;99859.40;;;37.59;34.61
34658;BME280;20865;43.312;27.152;2023-08-31T08:10:11;99856.16;;;37.71;33.60
34658;BME280;20865;43.312;27.152;2023-08-31T08:12:43;99862.56;;;37.90;33.18
34658;BME280;20865;43.312;27.152;2023-08-31T08:15:12;99860.34;;;38.10;32.62
34658;BME280;20865;43.312;27.152;2023-08-31T08:17:40;99853.95;;;38.22;32.74
34658;BME280;20865;43.312;27.152;2023-08-31T08:20:08;99858.91;;;38.29;31.71
34658;BME280;20865;43.312;27.152;2023-08-31T08:22:36;99858.05;;;38.38;31.45
34658;BME280;20865;43.312;27.152;2023-08-31T08:25:04;99864.84;;;38.42;31.71
34658;BME280;20865;43.312;27.152;2023-08-31T08:27:32;99857.17;;;38.58;32.21
34658;BME280;20865;43.312;27.152;2023-08-31T08:30:00;99859.67;;;38.69;31.02
34658;BME280;20865;43.312;27.152;2023-08-31T08:32:27;99858.94;;;38.73;31.29
34658;BME280;20865;43.312;27.152;2023-08-31T08:34:55;99853.55;;;38.69;30.89
34658;BME280;20865;43.312;27.152;2023-08-31T08:37:23;99860.28;;;38.92;31.33
34658;BME280;20865;43.312;27.152;2023-08-31T08:39:52;99861.72;;;38.94;30.76
34658;BME280;20865;43.312;27.152;2023-08-31T08:42:19;99862.41;;;38.99;30.34
34658;BME280;20865;43.312;27.152;2023-08-31T08:44:49;99854.98;;;39.04;30.41
34658;BME280;20865;43.312;27.152;2023-08-31T08:47:18;99866.59;;;38.99;29.60
34658;BME280;20865;43.312;27.152;2023-08-31T08:49:47;99866.27;;;38.98;30.33
34658;BME280;20865;43.312;27.152;2023-08-31T08:52:18;99865.86;;;38.92;30.73
34658;BME280;20865;43.312;27.152;2023-08-31T08:54:46;99874.25;;;38.71;30.63
34658;BME280;20865;43.312;27.152;2023-08-31T08:57:14;99873.07;;;38.27;30.89
34658;BME280;20865;43.312;27.152;2023-08-31T08:59:42;99876.76;;;38.19;31.01
34658;BME280;20865;43.312;27.152;2023-08-31T09:02:11;99870.94;;;38.50;31.22
34658;BME280;20865;43.312;27.152;2023-08-31T09:04:39;99870.65;;;38.61;31.00
34658;BME280;20865;43.312;27.152;2023-08-31T09:07:06;99877.18;;;38.55;31.53
34658;BME280;20865;43.312;27.152;2023-08-31T09:09:48;99884.42;;;38.35;31.82
34658;BME280;20865;43.312;27.152;2023-08-31T09:12:18;99884.33;;;38.51;31.67
34658;BME280;20865;43.312;27.152;2023-08-31T09:14:57;99889.52;;;38.68;31.43
34658;BME280;20865;43.312;27.152;2023-08-31T09:17:25;99893.64;;;38.77;31.15
34658;BME280;20865;43.312;27.152;2023-08-31T09:20:01;99891.57;;;38.82;30.92
34658;BME280;20865;43.312;27.152;2023-08-31T09:22:31;99895.95;;;38.80;30.52
34658;BME280;20865;43.312;27.152;2023-08-31T09:24:59;99887.58;;;38.80;30.77
34658;BME280;20865;43.312;27.152;2023-08-31T09:27:26;99896.60;;;38.82;30.54
34658;BME280;20865;43.312;27.152;2023-08-31T09:29:57;99889.73;;;38.88;30.08
34658;BME280;20865;43.312;27.152;2023-08-31T09:32:25;99899.72;;;38.95;30.56
34658;BME280;20865;43.312;27.152;2023-08-31T09:34:52;99911.18;;;38.96;30.53
34658;BME280;20865;43.312;27.152;2023-08-31T09:37:20;99905.34;;;38.86;30.17
34658;BME280;20865;43.312;27.152;2023-08-31T09:39:48;99895.95;;;38.80;30.45
34658;BME280;20865;43.312;27.152;2023-08-31T09:42:16;99892.42;;;38.73;30.29
34658;BME280;20865;43.312;27.152;2023-08-31T09:44:45;99894.27;;;38.79;30.35
34658;BME280;20865;43.312;27.152;2023-08-31T09:47:13;99893.27;;;38.83;30.46
34658;BME280;20865;43.312;27.152;2023-08-31T09:49:42;99897.05;;;38.79;30.06
34658;BME280;20865;43.312;27.152;2023-08-31T09:52:10;99888.97;;;38.80;30.41
34658;BME280;20865;43.312;27.152;2023-08-31T09:54:39;99883.35;;;38.78;30.15
34658;BME280;20865;43.312;27.152;2023-08-31T09:57:09;99894.25;;;38.68;29.75
34658;BME280;20865;43.312;27.152;2023-08-31T09:59:39;99893.14;;;38.57;30.38
34658;BME280;20865;43.312;27.152;2023-08-31T10:02:07;99893.04;;;38.64;30.05
34658;BME280;20865;43.312;27.152;2023-08-31T10:04:36;99896.72;;;38.67;30.31
34658;BME280;20865;43.312;27.152;2023-08-31T10:07:05;99891.14;;;38.67;30.06
34658;BME280;20865;43.312;27.152;2023-08-31T10:09:33;99886.64;;;38.54;30.16
34658;BME280;20865;43.312;27.152;2023-08-31T10:12:05;99884.27;;;38.60;29.59
34658;BME280;20865;43.312;27.152;2023-08-31T10:14:33;99879.49;;;38.58;29.13
34658;BME280;20865;43.312;27.152;2023-08-31T10:17:01;99885.95;;;38.49;29.74
34658;BME280;20865;43.312;27.152;2023-08-31T10:19:30;99889.36;;;38.51;28.88
34658;BME280;20865;43.312;27.152;2023-08-31T10:21:58;99885.84;;;38.56;28.83
34658;BME280;20865;43.312;27.152;2023-08-31T10:25:01;99896.63;;;38.52;28.44
34658;BME280;20865;43.312;27.152;2023-08-31T10:27:40;99902.64;;;38.47;28.62
34658;BME280;20865;43.312;27.152;2023-08-31T10:32:44;99910.73;;;38.18;28.26
34658;BME280;20865;43.312;27.152;2023-08-31T10:35:11;99909.23;;;38.34;28.44
34658;BME280;20865;43.312;27.152;2023-08-31T10:37:40;99903.10;;;38.34;28.93
34658;BME280;20865;43.312;27.152;2023-08-31T10:40:09;99909.09;;;38.38;28.43
34658;BME280;20865;43.312;27.152;2023-08-31T10:42:46;99906.73;;;38.35;29.05
34658;BME280;20865;43.312;27.152;2023-08-31T10:45:14;99901.89;;;38.40;29.08
34658;BME280;20865;43.312;27.152;2023-08-31T10:47:43;99900.80;;;38.41;28.16
34658;BME280;20865;43.312;27.152;2023-08-31T10:50:23;99891.88;;;38.32;28.14
34658;BME280;20865;43.312;27.152;2023-08-31T10:52:52;99892.50;;;38.34;28.15
34658;BME280;20865;43.312;27.152;2023-08-31T10:55:19;99899.15;;;38.42;27.97
34658;BME280;20865;43.312;27.152;2023-08-31T10:57:49;99896.31;;;38.40;28.41
34658;BME280;20865;43.312;27.152;2023-08-31T11:00:45;99907.89;;;38.46;28.46
34658;BME280;20865;43.312;27.152;2023-08-31T11:02:47;99902.76;;;38.52;28.18
34658;BME280;20865;43.312;27.152;2023-08-31T11:05:21;99903.05;;;38.53;27.72
34658;BME280;20865;43.312;27.152;2023-08-31T11:07:46;99902.36;;;38.57;28.11
34658;BME280;20865;43.312;27.152;2023-08-31T11:10:19;99907.51;;;38.63;27.60
34658;BME280;20865;43.312;27.152;2023-08-31T11:12:51;99908.59;;;38.50;27.42
34658;BME280;20865;43.312;27.152;2023-08-31T11:15:22;99905.42;;;38.47;27.47
34658;BME280;20865;43.312;27.152;2023-08-31T11:17:58;99910.37;;;38.45;27.71
34658;BME280;20865;43.312;27.152;2023-08-31T11:20:23;99902.94;;;38.48;27.42
34658;BME280;20865;43.312;27.152;2023-08-31T11:22:52;99899.50;;;38.67;27.32
34658;BME280;20865;43.312;27.152;2023-08-31T11:25:21;99900.58;;;38.75;27.13
34658;BME280;20865;43.312;27.152;2023-08-31T11:27:58;99895.28;;;38.85;27.09
34658;BME280;20865;43.312;27.152;2023-08-31T11:30:28;99897.53;;;38.76;27.30
34658;BME280;20865;43.312;27.152;2023-08-31T11:33:01;99893.19;;;38.59;28.20
34658;BME280;20865;43.312;27.152;2023-08-31T11:35:30;99890.11;;;38.70;28.01
34658;BME280;20865;43.312;27.152;2023-08-31T11:37:57;99893.55;;;38.63;27.86
34658;BME280;20865;43.312;27.152;2023-08-31T11:40:27;99891.14;;;38.67;27.76
34658;BME280;20865;43.312;27.152;2023-08-31T11:42:54;99896.23;;;38.58;27.16
34658;BME280;20865;43.312;27.152;2023-08-31T11:45:23;99891.30;;;38.51;27.37
34658;BME280;20865;43.312;27.152;2023-08-31T11:47:53;99890.64;;;38.46;27.53
34658;BME280;20865;43.312;27.152;2023-08-31T11:50:23;99889.18;;;38.55;27.60
34658;BME280;20865;43.312;27.152;2023-08-31T11:52:51;99889.27;;;38.70;27.61
34658;BME280;20865;43.312;27.152;2023-08-31T11:55:20;99887.46;;;38.85;27.10
34658;BME280;20865;43.312;27.152;2023-08-31T11:57:50;99884.05;;;38.82;27.40
34658;BME280;20865;43.312;27.152;2023-08-31T12:00:19;99881.07;;;38.87;27.51
34658;BME280;20865;43.312;27.152;2023-08-31T12:02:57;99876.04;;;38.86;27.99
34658;BME280;20865;43.312;27.152;2023-08-31T12:05:26;99875.50;;;38.77;27.50
34658;BME280;20865;43.312;27.152;2023-08-31T12:07:55;99871.68;;;38.69;26.00
34658;BME280;20865;43.312;27.152;2023-08-31T12:10:24;99879.46;;;38.67;26.68
34658;BME280;20865;43.312;27.152;2023-08-31T12:12:52;99878.21;;;38.63;26.76
34658;BME280;20865;43.312;27.152;2023-08-31T12:15:22;99867.71;;;38.56;26.75
34658;BME280;20865;43.312;27.152;2023-08-31T12:17:49;99866.53;;;38.64;26.77
34658;BME280;20865;43.312;27.152;2023-08-31T12:20:26;99871.97;;;38.70;26.73
34658;BME280;20865;43.312;27.152;2023-08-31T12:22:53;99863.20;;;38.76;26.79
34658;BME280;20865;43.312;27.152;2023-08-31T12:25:24;99863.67;;;38.73;26.24
34658;BME280;20865;43.312;27.152;2023-08-31T12:27:52;99869.73;;;38.70;26.56
34658;BME280;20865;43.312;27.152;2023-08-31T12:30:20;99864.23;;;38.72;26.26
34658;BME280;20865;43.312;27.152;2023-08-31T12:32:48;99859.56;;;38.75;26.12
34658;BME280;20865;43.312;27.152;2023-08-31T12:35:16;99863.86;;;38.69;26.21
34658;BME280;20865;43.312;27.152;2023-08-31T12:37:43;99869.63;;;38.65;26.53
34658;BME280;20865;43.312;27.152;2023-08-31T12:40:11;99867.67;;;38.65;26.82
34658;BME280;20865;43.312;27.152;2023-08-31T12:42:40;99864.92;;;38.56;27.04
34658;BME280;20865;43.312;27.152;2023-08-31T12:45:08;99863.89;;;38.48;26.59
34658;BME280;20865;43.312;27.152;2023-08-31T12:47:36;99866.93;;;38.46;26.09
34658;BME280;20865;43.312;27.152;2023-08-31T12:50:04;99867.33;;;38.41;25.94
34658;BME280;20865;43.312;27.152;2023-08-31T12:52:33;99860.47;;;38.46;26.18
34658;BME280;20865;43.312;27.152;2023-08-31T12:55:00;99855.10;;;38.32;26.12
34658;BME280;20865;43.312;27.152;2023-08-31T12:57:28;99855.87;;;38.30;26.03
34658;BME280;20865;43.312;27.152;2023-08-31T12:59:56;99856.05;;;38.26;26.29
34658;BME280;20865;43.312;27.152;2023-08-31T13:02:23;99854.95;;;38.27;26.38
34658;BME280;20865;43.312;27.152;2023-08-31T13:04:51;99853.91;;;38.19;26.17